Terminal Aerodrome Forecast
Issued by NWS

Home | Current Version | Previous Version | Text Only | Print | Product List | Glossary On
Versions: 1 2 3 4 5 6 7 8 9 10 11 12 13 14 15 16 17 18 19 20 21 22 23 24 25 26
000
FTUS45 KPIH 262337
TAFSUN
TAF
KSUN 262337Z 2700/2806 20011KT P6SM SCT100
     FM270500 32007KT P6SM SCT150
     FM271600 13009KT P6SM FEW060 FEW140
     FM272100 21009KT P6SM FEW060
     FM280400 31009KT P6SM SKC
     AMD LTD TO CLD VIS AND WIND 2706/2714=

USA.gov is the U.S. government's official web portal to all federal, state and local government web resources and services.